Portada
METAR-TAF:

METAR-TAF

Aeropuertos :

Aeropuerto de Copenhague-Kastrup

Copenhague, Dinamarca

latitud: 55-37N, longitud: 012-39E, altitud: 5 m

Observación

El informe se hizo hace 14 minutos, a las 03:20 UTC
Viento 6 kt del norte-noreste
Temperatura 13°C
Humedad 72%
Presión 1028 hPa
Visibilidad 10 km o más

METAR: EKCH 010320Z AUTO 02006KT 9999 NCD 13/08 Q1028 NOSIG

Hora: 05:34 (03:34 UTC)

Pronóstico

El informe se hizo hace 4 horas y 32 minutos, a las 23:02 UTC
Pronóstico válido del 01 a las 00 UTC al 01 a las 24 UTC
Viento 5 kt del norte
Visibilidad 10 km o más
sin nubes por debajo de 1500 m y sin presencia de cumulonimbus.

TAF: EKCH 312302Z 0100/0124 01005KT CAVOK

Observaciones y pronósticos meteorológicos de más de 4000 aeropuertos (mensajes METAR y TAF).

Los puntos amarillos y rojos representan las estaciones disponibles.

Ponga el ratón en el punto deseado para ver el nombre de la estación.

Haga clic para ver las observaciones y los pronósticos meteorológicos.

Para cambiar el mapa : haga clic en los botones verdes con una cruz de color negro para hacer un zoom, en el botón verde con un guión para alejar o en las flechas verdes para mapas adyacentes.


METAR-TAF: